Time;durP1;ratioP1;P1;durP2;ratioP2;P2;SDS_P1;SDS_P2;PMS_P1;PMS_P2;Temp;Humidity;BMP_temperature;BMP_pressure;BME280_temperature;BME280_humidity;BME280_pressure;Samples;Min_cycle;Max_cycle;Signal;HPM_P1;HPM_P2
2022/06/11 00:01:25;;;;;;;3.20;2.90;;;;;;;15.08;100.00;100851.94;5060578;28;20935;-76
2022/06/11 00:03:54;;;;;;;3.47;3.17;;;;;;;15.12;100.00;100858.00;5068633;28;20661;-76
2022/06/11 00:06:19;;;;;;;4.20;3.00;;;;;;;15.12;100.00;100858.00;5070054;28;20182;-76
2022/06/11 00:08:47;;;;;;;3.20;2.90;;;;;;;15.08;100.00;100860.66;5068668;28;20194;-76
2022/06/11 00:11:13;;;;;;;3.30;2.90;;;;;;;15.05;100.00;100862.44;5069768;28;20386;-77
2022/06/11 00:13:39;;;;;;;4.67;3.10;;;;;;;15.02;100.00;100859.91;5065258;28;20210;-76
2022/06/11 00:16:07;;;;;;;3.63;3.33;;;;;;;14.99;100.00;100863.41;5063984;28;20699;-76
2022/06/11 00:18:33;;;;;;;3.23;2.93;;;;;;;14.98;100.00;100853.84;5069758;28;20197;-77
2022/06/11 00:20:59;;;;;;;3.47;3.00;;;;;;;14.98;100.00;100853.84;5073454;28;20220;-77
2022/06/11 00:23:26;;;;;;;3.00;2.80;;;;;;;14.97;100.00;100861.72;5071171;28;20218;-76
2022/06/11 00:25:52;;;;;;;3.63;3.20;;;;;;;14.91;100.00;100858.31;5064999;28;20237;-76
2022/06/11 00:28:17;;;;;;;3.40;3.10;;;;;;;14.84;100.00;100856.72;5072461;28;20186;-76
2022/06/11 00:30:43;;;;;;;3.20;2.90;;;;;;;14.77;100.00;100858.59;5064438;28;20677;-77
2022/06/11 00:33:11;;;;;;;3.50;3.20;;;;;;;14.76;100.00;100856.00;5066716;28;20216;-76
2022/06/11 00:35:40;;;;;;;3.23;2.97;;;;;;;14.73;100.00;100854.31;5069057;28;20188;-77
2022/06/11 00:38:05;;;;;;;3.33;3.10;;;;;;;14.72;100.00;100856.94;5068327;28;20631;-76
2022/06/11 00:40:34;;;;;;;3.03;2.73;;;;;;;14.69;100.00;100855.22;5068421;28;20178;-77
2022/06/11 00:42:59;;;;;;;3.00;2.80;;;;;;;14.68;100.00;100855.28;5071317;28;20275;-77
2022/06/11 00:45:32;;;;;;;2.93;2.73;;;;;;;14.67;100.00;100856.97;5071639;28;20277;-77
2022/06/11 00:47:58;;;;;;;3.10;2.73;;;;;;;14.65;100.00;100856.16;5080676;28;20196;-77
2022/06/11 00:50:37;;;;;;;3.93;2.87;;;;;;;14.64;100.00;100851.84;5070272;28;20221;-77
2022/06/11 00:53:05;;;;;;;2.90;2.70;;;;;;;14.60;100.00;100856.22;5073976;28;20298;-77
2022/06/11 00:55:38;;;;;;;3.10;2.77;;;;;;;14.59;100.00;100864.94;5068921;28;20181;-77
2022/06/11 00:58:17;;;;;;;3.00;2.80;;;;;;;14.53;100.00;100867.63;5063558;28;20191;-77
2022/06/11 01:00:57;;;;;;;4.20;3.20;;;;;;;14.43;100.00;100863.47;5068460;28;20206;-76
2022/06/11 01:03:45;;;;;;;3.67;3.37;;;;;;;14.38;100.00;100860.91;5067646;28;20518;-76
2022/06/11 01:06:35;;;;;;;3.43;3.13;;;;;;;14.33;100.00;100860.97;5073858;28;20231;-76
2022/06/11 01:09:01;;;;;;;4.30;3.37;;;;;;;14.31;100.00;100862.75;5063768;28;20650;-75
2022/06/11 01:11:47;;;;;;;3.53;3.23;;;;;;;14.29;100.00;100853.25;5071184;28;20223;-76
2022/06/11 01:14:31;;;;;;;3.20;3.00;;;;;;;14.27;100.00;100853.28;5067111;28;20192;-75
2022/06/11 01:17:22;;;;;;;3.13;2.83;;;;;;;14.28;100.00;100857.63;5065152;28;20179;-76
2022/06/11 01:19:59;;;;;;;4.13;3.47;;;;;;;14.31;100.00;100862.75;5070804;28;20180;-76
2022/06/11 01:22:30;;;;;;;3.10;2.90;;;;;;;14.35;100.00;100854.91;5067455;28;20208;-76
2022/06/11 01:25:04;;;;;;;3.47;3.17;;;;;;;14.38;100.00;100865.28;5066540;28;20179;-74
2022/06/11 01:27:43;;;;;;;3.70;3.40;;;;;;;14.39;100.00;100864.38;5066691;28;20179;-75
2022/06/11 01:30:29;;;;;;;3.80;3.50;;;;;;;14.39;100.00;100853.97;5070531;28;20310;-76
2022/06/11 01:33:11;;;;;;;3.30;3.00;;;;;;;14.38;100.00;100852.25;5063651;28;20388;-76
2022/06/11 01:35:56;;;;;;;3.90;3.57;;;;;;;14.36;100.00;100860.09;5069673;28;20182;-75
2022/06/11 01:38:33;;;;;;;4.00;3.50;;;;;;;14.34;100.00;100851.44;5072539;28;20196;-77
2022/06/11 01:41:17;;;;;;;3.80;3.50;;;;;;;14.28;100.00;100856.75;5075261;28;20548;-75
2022/06/11 01:43:46;;;;;;;4.00;3.63;;;;;;;14.18;100.00;100862.09;5071793;28;20260;-74
2022/06/11 01:46:25;;;;;;;3.37;3.10;;;;;;;14.13;100.00;100860.44;5068464;28;20178;-74
2022/06/11 01:49:03;;;;;;;4.33;3.93;;;;;;;14.07;100.00;100868.31;5072326;28;20268;-76
2022/06/11 01:51:56;;;;;;;3.40;3.20;;;;;;;14.03;100.00;100854.50;5071742;28;20208;-76
2022/06/11 01:54:43;;;;;;;8.60;3.40;;;;;;;14.01;100.00;100862.31;5087921;28;20185;-76
2022/06/11 01:57:18;;;;;;;6.17;3.83;;;;;;;14.00;100.00;100862.34;5071050;28;20193;-76
2022/06/11 01:59:49;;;;;;;3.87;3.23;;;;;;;13.97;100.00;100863.25;5074252;28;20181;-76
2022/06/11 02:02:26;;;;;;;4.70;3.40;;;;;;;13.92;100.00;100867.66;5070863;28;20750;-76
2022/06/11 02:05:13;;;;;;;3.50;3.20;;;;;;;13.91;100.00;100858.13;5068232;28;20200;-74
2022/06/11 02:08:06;;;;;;;3.43;3.13;;;;;;;13.89;100.00;100862.50;5071201;28;20185;-74
2022/06/11 02:10:44;;;;;;;3.77;3.47;;;;;;;13.89;100.00;100856.44;5068938;28;20185;-75
2022/06/11 02:13:41;;;;;;;3.40;3.20;;;;;;;13.90;100.00;100863.38;5073770;28;20200;-74
2022/06/11 02:16:25;;;;;;;3.70;3.40;;;;;;;13.92;100.00;100866.78;5072409;28;20199;-76
2022/06/11 02:18:53;;;;;;;3.77;3.47;;;;;;;13.89;100.00;100870.28;5066745;28;20273;-75
2022/06/11 02:21:24;;;;;;;3.77;3.40;;;;;;;13.87;100.00;100867.72;5074757;28;20206;-75
2022/06/11 02:23:57;;;;;;;3.83;3.50;;;;;;;13.87;100.00;100859.03;5070342;28;20204;-75
2022/06/11 02:26:27;;;;;;;3.30;3.00;;;;;;;13.87;100.00;100861.66;5070920;28;20239;-76
2022/06/11 02:28:55;;;;;;;3.70;3.30;;;;;;;13.89;100.00;100856.44;5071170;28;20195;-78
2022/06/11 02:31:28;;;;;;;3.87;3.43;;;;;;;13.89;100.00;100865.09;5074424;28;20205;-76
2022/06/11 02:33:54;;;;;;;3.37;3.07;;;;;;;13.90;100.00;100869.41;5061083;28;20245;-74
2022/06/11 02:36:29;;;;;;;3.77;3.33;;;;;;;13.90;100.00;100863.38;5061402;28;20186;-77
2022/06/11 02:38:58;;;;;;;3.43;3.23;;;;;;;13.89;100.00;100867.69;5052715;28;20248;-76
2022/06/11 02:41:31;;;;;;;3.83;3.33;;;;;;;13.85;100.00;100872.09;5057489;28;20384;-75
2022/06/11 02:43:57;;;;;;;3.47;3.17;;;;;;;13.81;100.00;100873.00;5072502;28;20696;-75
2022/06/11 02:46:41;;;;;;;3.60;3.03;;;;;;;13.75;100.00;100870.50;5072716;28;20193;-76
2022/06/11 02:49:09;;;;;;;3.20;2.90;;;;;;;13.70;100.00;100875.72;5077325;28;20196;-74
2022/06/11 02:51:35;;;;;;;3.63;3.10;;;;;;;13.69;100.00;100873.16;5073328;28;20205;-73
2022/06/11 02:54:00;;;;;;;2.90;2.70;;;;;;;13.68;100.00;100872.31;5070197;28;20192;-76
2022/06/11 02:56:27;;;;;;;3.23;3.00;;;;;;;13.67;100.00;100883.59;5075004;28;20247;-76
2022/06/11 02:58:53;;;;;;;3.13;2.73;;;;;;;13.67;100.00;100881.00;5074785;28;20190;-75
2022/06/11 03:01:20;;;;;;;3.13;2.83;;;;;;;13.66;100.00;100876.66;5064466;28;20205;-75
2022/06/11 03:03:49;;;;;;;3.07;2.77;;;;;;;13.64;100.00;100875.81;5069528;28;20182;-75
2022/06/11 03:06:16;;;;;;;3.13;2.90;;;;;;;13.59;100.00;100871.56;5061374;28;20665;-76
2022/06/11 03:08:42;;;;;;;3.40;3.10;;;;;;;13.54;100.00;100882.00;5061881;28;20186;-77
2022/06/11 03:11:09;;;;;;;3.33;3.03;;;;;;;13.50;100.00;100875.13;5079546;28;20206;-76
2022/06/11 03:13:34;;;;;;;3.37;3.10;;;;;;;13.48;100.00;100872.53;5082177;28;20227;-77
2022/06/11 03:16:00;;;;;;;3.50;3.00;;;;;;;13.49;100.00;100878.59;5071854;28;20277;-76
2022/06/11 03:18:26;;;;;;;3.00;2.80;;;;;;;13.47;100.00;100878.59;5073462;28;20652;-76
2022/06/11 03:20:52;;;;;;;3.47;3.10;;;;;;;13.47;100.00;100881.22;5082165;28;20459;-76
2022/06/11 03:23:18;;;;;;;3.20;2.90;;;;;;;13.48;100.00;100874.28;5077944;28;20214;-76
2022/06/11 03:25:44;;;;;;;3.53;3.23;;;;;;;13.48;100.00;100882.09;5077627;28;20242;-75
2022/06/11 03:28:20;;;;;;;3.13;2.93;;;;;;;13.49;100.00;100881.22;5073929;28;20203;-76
2022/06/11 03:30:46;;;;;;;3.77;2.80;;;;;;;13.52;100.00;100883.78;5080897;28;20204;-75
2022/06/11 03:33:12;;;;;;;3.83;3.00;;;;;;;13.53;100.00;100883.75;5079055;28;20186;-75
2022/06/11 03:35:37;;;;;;;4.10;2.90;;;;;;;13.56;100.00;100886.31;5079150;28;20185;-76
2022/06/11 03:38:07;;;;;;;3.60;3.30;;;;;;;13.61;100.00;100890.63;5080229;28;20187;-76
2022/06/11 03:40:33;;;;;;;3.93;3.63;;;;;;;13.63;100.00;100887.09;5079642;28;20183;-75
2022/06/11 03:42:59;;;;;;;3.57;3.30;;;;;;;13.66;100.00;100901.81;5075075;28;20183;-77
2022/06/11 03:45:25;;;;;;;3.30;3.00;;;;;;;13.69;100.00;100888.75;5074732;28;20195;-76
2022/06/11 03:47:50;;;;;;;3.20;3.00;;;;;;;13.73;100.00;100887.84;5078859;28;20212;-75
2022/06/11 03:50:23;;;;;;;3.83;3.30;;;;;;;13.79;100.00;100899.91;5078040;28;20182;-76
2022/06/11 03:52:48;;;;;;;3.90;2.90;;;;;;;13.85;100.00;100898.09;5077900;28;20211;-75
2022/06/11 03:55:14;;;;;;;3.63;2.90;;;;;;;14.16;100.00;100899.41;5079581;28;20271;-75
2022/06/11 03:57:40;;;;;;;3.00;2.70;;;;;;;14.74;100.00;100908.13;5078453;28;20610;-78
2022/06/11 04:00:10;;;;;;;4.53;2.97;;;;;;;15.28;100.00;100902.88;5072942;28;20193;-77
2022/06/11 04:02:36;;;;;;;2.50;2.30;;;;;;;15.64;100.00;100903.06;5075234;28;20207;-76
2022/06/11 04:05:03;;;;;;;2.87;2.60;;;;;;;15.70;100.00;100905.53;5076226;28;20944;-75
2022/06/11 04:07:29;;;;;;;2.83;2.60;;;;;;;15.61;100.00;100909.16;5079291;28;20435;-76
2022/06/11 04:09:55;;;;;;;2.90;2.70;;;;;;;15.53;100.00;100904.09;5073772;28;20600;-76
2022/06/11 04:12:20;;;;;;;3.10;2.80;;;;;;;15.44;100.00;100906.91;5076831;28;20210;-76
2022/06/11 04:14:48;;;;;;;3.10;2.80;;;;;;;15.37;100.00;100914.00;5072609;28;20186;-75
2022/06/11 04:17:18;;;;;;;3.00;2.70;;;;;;;15.42;100.00;100911.28;5077998;28;20206;-75
2022/06/11 04:19:48;;;;;;;3.67;2.70;;;;;;;15.66;100.00;100919.50;5071518;28;20276;-75
2022/06/11 04:22:15;;;;;;;3.23;2.90;;;;;;;16.08;100.00;100913.47;5074994;28;20202;-75
2022/06/11 04:24:41;;;;;;;3.27;2.97;;;;;;;16.16;100.00;100914.16;5077523;28;20193;-75
2022/06/11 04:27:09;;;;;;;3.67;2.67;;;;;;;16.21;100.00;100916.69;5072811;28;20238;-77
2022/06/11 04:29:38;;;;;;;2.70;2.50;;;;;;;16.23;100.00;100912.28;5073332;28;20200;-76
2022/06/11 04:32:07;;;;;;;2.93;2.50;;;;;;;16.26;100.00;100914.84;5069948;28;20413;-76
2022/06/11 04:34:32;;;;;;;2.60;2.37;;;;;;;16.33;100.00;100921.63;5075241;28;20236;-76
2022/06/11 04:36:58;;;;;;;3.07;2.80;;;;;;;16.41;100.00;100924.91;5073978;28;20194;-76
2022/06/11 04:39:27;;;;;;;3.87;2.60;;;;;;;16.85;100.00;100929.13;5074320;28;20187;-76
2022/06/11 04:41:54;;;;;;;2.90;2.43;;;;;;;18.04;98.19;100925.94;5071591;28;20193;-77
2022/06/11 04:44:20;;;;;;;2.80;2.10;;;;;;;19.40;93.51;100925.94;5077512;28;20211;-78
2022/06/11 04:46:46;;;;;;;2.30;2.10;;;;;;;20.58;90.01;100923.25;5081170;28;20226;-76
2022/06/11 04:49:12;;;;;;;2.90;2.40;;;;;;;21.67;86.88;100927.47;5073001;28;20187;-75
2022/06/11 04:51:38;;;;;;;2.20;1.77;;;;;;;22.61;84.23;100923.06;5074522;28;20709;-77
2022/06/11 04:54:03;;;;;;;1.83;1.70;;;;;;;23.47;82.30;100924.03;5076450;28;20270;-78
2022/06/11 04:56:30;;;;;;;2.00;1.60;;;;;;;24.19;80.17;100921.91;5074850;28;21823;-76
2022/06/11 04:58:56;;;;;;;1.50;1.40;;;;;;;24.87;78.26;100922.47;5076581;28;20193;-75
2022/06/11 05:01:22;;;;;;;1.57;1.40;;;;;;;25.47;76.26;100931.28;5079856;28;20225;-76
2022/06/11 05:03:48;;;;;;;1.83;1.33;;;;;;;26.03;74.86;100929.50;5076561;28;20211;-76
2022/06/11 05:06:16;;;;;;;2.20;1.60;;;;;;;26.62;73.39;100933.69;5080236;28;20672;-75
2022/06/11 05:08:42;;;;;;;2.23;1.40;;;;;;;27.21;72.05;100928.91;5076627;28;20190;-77
2022/06/11 05:11:07;;;;;;;2.07;1.37;;;;;;;27.70;70.93;100929.97;5081035;28;20196;-76
2022/06/11 05:13:33;;;;;;;1.60;1.50;;;;;;;28.10;69.57;100927.13;5081724;28;20189;-77
2022/06/11 05:15:59;;;;;;;1.30;1.20;;;;;;;28.48;68.49;100930.56;5081980;28;20188;-76
2022/06/11 05:18:27;;;;;;;2.10;1.27;;;;;;;28.85;67.14;100930.47;5079014;28;20216;-76
2022/06/11 05:20:53;;;;;;;1.53;1.40;;;;;;;29.15;65.99;100930.91;5083177;28;20208;-75
2022/06/11 05:23:19;;;;;;;1.90;1.47;;;;;;;29.50;64.93;100935.28;5073703;28;20318;-76
2022/06/11 05:25:45;;;;;;;1.50;1.20;;;;;;;29.77;64.06;100937.59;5074778;28;22527;-77
2022/06/11 05:28:17;;;;;;;2.40;1.50;;;;;;;30.11;61.96;100936.69;5070889;28;20265;-77
2022/06/11 05:30:44;;;;;;;1.73;1.30;;;;;;;30.29;61.40;100925.47;5069737;28;20212;-77
2022/06/11 05:33:10;;;;;;;2.07;1.73;;;;;;;30.50;61.87;100925.50;5072723;28;20193;-77
2022/06/11 05:35:36;;;;;;;1.73;1.57;;;;;;;30.80;61.38;100932.81;5072721;28;20298;-76
2022/06/11 05:38:05;;;;;;;2.00;1.50;;;;;;;31.09;60.77;100941.97;5077155;28;20185;-76
2022/06/11 05:40:34;;;;;;;2.40;1.37;;;;;;;31.39;60.41;100935.81;5073167;28;20189;-75
2022/06/11 05:42:59;;;;;;;1.50;1.20;;;;;;;31.62;60.01;100940.97;5064670;28;20208;-77
2022/06/11 05:45:35;;;;;;;1.50;1.40;;;;;;;31.93;59.41;100932.91;5063576;28;20194;-76
2022/06/11 05:48:02;;;;;;;1.90;1.33;;;;;;;32.25;58.29;100939.88;5061912;28;20725;-75
2022/06/11 05:50:31;;;;;;;1.70;1.30;;;;;;;32.31;58.22;100938.47;5058936;28;20190;-76
2022/06/11 05:52:58;;;;;;;2.33;1.30;;;;;;;32.53;58.01;100937.34;5052412;28;20177;-75
2022/06/11 05:55:27;;;;;;;1.42;1.30;;;;;;;32.79;57.81;100942.13;5053828;28;20281;-75
2022/06/11 05:57:55;;;;;;;1.50;1.20;;;;;;;33.06;57.34;100940.56;5056985;28;20277;-76
2022/06/11 06:00:23;;;;;;;1.45;1.20;;;;;;;33.29;57.09;100941.88;5053821;28;20182;-75
2022/06/11 06:02:49;;;;;;;1.60;1.40;;;;;;;33.46;56.74;100941.28;5050673;28;20187;-76
2022/06/11 06:05:20;;;;;;;1.58;1.20;;;;;;;33.53;56.36;100937.00;5056605;28;20251;-75
2022/06/11 06:07:46;;;;;;;1.85;1.30;;;;;;;33.76;55.86;100942.81;5058829;28;20181;-76
2022/06/11 06:10:12;;;;;;;1.30;1.10;;;;;;;33.95;55.54;100936.53;5057605;28;20201;-76
2022/06/11 06:12:38;;;;;;;3.20;1.40;;;;;;;34.18;55.16;100941.44;5057777;28;21456;-76
2022/06/11 06:15:10;;;;;;;1.77;1.30;;;;;;;34.42;55.30;100937.31;5053633;28;20269;-76
2022/06/11 06:17:39;;;;;;;1.05;1.02;;;;;;;34.60;55.27;100940.00;5054451;28;20309;-75
2022/06/11 06:20:08;;;;;;;2.40;1.45;;;;;;;34.78;54.66;100948.88;5058926;28;20212;-76
2022/06/11 06:22:34;;;;;;;2.53;1.92;;;;;;;34.85;54.38;100946.41;5057205;28;20222;-74
2022/06/11 06:24:59;;;;;;;1.83;1.50;;;;;;;34.94;53.77;100953.56;5057210;28;20529;-77
2022/06/11 06:27:24;;;;;;;1.73;1.15;;;;;;;34.98;53.83;100953.25;5058262;28;20563;-76
2022/06/11 06:29:50;;;;;;;3.88;1.60;;;;;;;35.06;53.82;100956.84;5055801;28;20277;-74
2022/06/11 06:32:16;;;;;;;2.85;2.10;;;;;;;35.13;53.62;100950.78;5050523;28;20202;-75
2022/06/11 06:34:41;;;;;;;1.67;1.50;;;;;;;35.27;52.95;100960.97;5062421;28;20205;-75
2022/06/11 06:37:06;;;;;;;1.65;1.48;;;;;;;35.24;52.87;100955.94;5057285;28;20737;-76
2022/06/11 06:39:32;;;;;;;2.35;1.70;;;;;;;35.12;52.76;100955.34;5065828;28;20189;-75
2022/06/11 06:41:58;;;;;;;2.10;1.90;;;;;;;35.00;52.41;100952.06;5069662;28;20202;-75
2022/06/11 06:44:24;;;;;;;2.20;1.65;;;;;;;34.90;51.67;100940.56;5061599;28;20179;-75
2022/06/11 06:46:50;;;;;;;2.38;1.60;;;;;;;34.77;51.97;100951.72;5050101;28;20286;-74
2022/06/11 06:49:16;;;;;;;2.40;1.75;;;;;;;34.67;52.13;100945.59;5048806;28;20702;-77
2022/06/11 06:51:41;;;;;;;3.15;1.73;;;;;;;34.58;52.42;100945.53;5056690;28;20214;-77
2022/06/11 06:54:07;;;;;;;2.13;1.80;;;;;;;34.68;52.64;100945.44;5068898;28;20181;-73
2022/06/11 06:56:33;;;;;;;2.72;1.70;;;;;;;34.83;52.82;100951.09;5069600;28;20265;-74
2022/06/11 06:59:03;;;;;;;3.67;1.70;;;;;;;34.96;51.62;100945.31;5066775;28;20394;-75
2022/06/11 07:01:29;;;;;;;3.75;1.63;;;;;;;34.85;51.83;100943.72;5068341;28;20690;-76
2022/06/11 07:03:55;;;;;;;2.90;1.80;;;;;;;34.78;51.82;100948.03;5067752;28;20181;-77
2022/06/11 07:06:21;;;;;;;2.10;1.60;;;;;;;34.79;52.06;100949.72;5063961;28;20247;-75
2022/06/11 07:08:54;;;;;;;3.72;1.70;;;;;;;34.84;52.68;100949.25;5060771;28;20669;-77
2022/06/11 07:11:20;;;;;;;2.83;1.50;;;;;;;34.86;52.17;100944.56;5061890;28;20202;-77
2022/06/11 07:13:47;;;;;;;2.92;1.67;;;;;;;34.76;52.28;100944.66;5063608;28;20204;-77
2022/06/11 07:16:16;;;;;;;1.80;1.58;;;;;;;34.83;52.57;100944.88;5075666;28;20181;-75
2022/06/11 07:18:45;;;;;;;3.47;1.50;;;;;;;34.83;52.21;100937.66;5074673;28;20209;-76
2022/06/11 07:21:20;;;;;;;1.60;1.50;;;;;;;34.75;52.25;100942.97;5060284;28;20195;-76
2022/06/11 07:23:53;;;;;;;3.38;1.90;;;;;;;34.77;52.67;100946.34;5065200;28;20269;-75
2022/06/11 07:26:29;;;;;;;2.80;1.50;;;;;;;34.63;53.28;100940.53;5058666;28;20231;-76
2022/06/11 07:29:02;;;;;;;2.83;1.60;;;;;;;34.52;52.96;100943.47;5061791;28;20223;-75
2022/06/11 07:31:30;;;;;;;1.90;1.55;;;;;;;34.35;53.28;100953.19;5062744;28;20693;-74
2022/06/11 07:33:57;;;;;;;1.65;1.42;;;;;;;34.27;53.38;100945.88;5065287;28;20240;-76
2022/06/11 07:36:22;;;;;;;3.28;1.65;;;;;;;34.12;53.84;100944.75;5054572;28;20185;-75
2022/06/11 07:38:48;;;;;;;3.53;1.85;;;;;;;34.11;53.80;100943.06;5054100;28;20179;-75
2022/06/11 07:41:13;;;;;;;2.85;1.90;;;;;;;33.89;53.84;100942.50;5054761;28;20698;-75
2022/06/11 07:43:39;;;;;;;2.03;1.83;;;;;;;33.76;53.85;100936.63;5060708;28;20187;-77
2022/06/11 07:46:05;;;;;;;3.17;1.80;;;;;;;33.58;54.11;100930.19;5056882;28;20255;-77
2022/06/11 07:48:30;;;;;;;1.85;1.67;;;;;;;33.32;53.78;100935.41;5065532;28;20179;-76
2022/06/11 07:50:56;;;;;;;1.92;1.50;;;;;;;33.30;54.65;100932.00;5056249;28;20217;-75
2022/06/11 07:53:22;;;;;;;1.83;1.60;;;;;;;33.17;54.23;100932.31;5057136;28;20197;-75
2022/06/11 07:55:51;;;;;;;2.92;1.88;;;;;;;32.99;55.10;100930.41;5058280;28;20236;-75
2022/06/11 07:58:19;;;;;;;3.78;1.98;;;;;;;32.79;55.63;100929.56;5066791;28;20277;-75
2022/06/11 08:00:49;;;;;;;2.78;1.58;;;;;;;32.68;56.02;100927.06;5060237;28;20206;-78
2022/06/11 08:03:16;;;;;;;3.60;1.80;;;;;;;32.57;56.40;100925.38;5062853;28;20209;-76
2022/06/11 08:05:42;;;;;;;3.72;1.88;;;;;;;32.48;56.93;100928.91;5057977;28;20262;-73
2022/06/11 08:08:09;;;;;;;3.58;2.17;;;;;;;32.24;55.87;100919.44;5064380;28;20559;-74
2022/06/11 08:10:37;;;;;;;2.15;1.90;;;;;;;32.04;55.93;100929.28;5051627;28;20702;-73
2022/06/11 08:13:03;;;;;;;2.10;1.53;;;;;;;31.86;56.46;100924.59;5055149;28;20244;-75
2022/06/11 08:15:32;;;;;;;1.80;1.50;;;;;;;31.69;56.94;100938.63;5066784;28;20227;-76
2022/06/11 08:17:58;;;;;;;1.95;1.60;;;;;;;31.53;57.04;100933.78;5053435;28;20190;-75
2022/06/11 08:20:27;;;;;;;2.77;1.60;;;;;;;31.35;56.61;100928.22;5055578;28;20174;-75
2022/06/11 08:22:53;;;;;;;1.50;1.40;;;;;;;31.18;57.00;100930.53;5053237;28;20179;-74
2022/06/11 08:25:20;;;;;;;2.83;1.47;;;;;;;30.97;56.48;100934.03;5055560;28;20638;-75
2022/06/11 08:27:45;;;;;;;3.37;1.47;;;;;;;30.81;57.17;100930.97;5055415;28;20181;-74
2022/06/11 08:30:18;;;;;;;1.97;1.60;;;;;;;30.61;57.64;100933.53;5057781;28;20178;-73
2022/06/11 08:32:44;;;;;;;1.53;1.43;;;;;;;30.39;57.95;100929.09;5051563;28;20237;-74
2022/06/11 08:35:12;;;;;;;4.63;1.63;;;;;;;30.21;57.96;100934.13;5054905;28;20307;-73
2022/06/11 08:37:37;;;;;;;2.80;1.80;;;;;;;30.05;58.30;100935.38;5064070;28;20849;-76
2022/06/11 08:40:12;;;;;;;4.27;2.03;;;;;;;29.90;57.48;100926.78;5057979;28;20223;-76
2022/06/11 08:42:41;;;;;;;2.23;1.77;;;;;;;29.53;58.23;100934.22;5059503;28;20197;-75
2022/06/11 08:45:22;;;;;;;2.10;1.83;;;;;;;29.31;58.96;100928.75;5048025;28;20174;-76
2022/06/11 08:47:54;;;;;;;2.97;1.87;;;;;;;29.18;59.06;100928.00;5045332;28;20270;-77
2022/06/11 08:50:27;;;;;;;1.97;1.27;;;;;;;29.03;59.66;100930.03;5043955;28;20233;-78
2022/06/11 08:52:53;;;;;;;4.27;2.10;;;;;;;28.76;59.00;100925.84;5048131;28;21735;-77
2022/06/11 08:55:21;;;;;;;2.83;2.07;;;;;;;28.36;58.57;100928.84;5046605;28;20182;-78
2022/06/11 08:58:28;;;;;;;4.63;2.00;;;;;;;27.97;58.85;100929.78;5049049;28;20261;-78
2022/06/11 09:01:11;;;;;;;2.87;2.00;;;;;;;27.58;59.53;100920.19;5014864;28;20414;-75
2022/06/11 09:03:49;;;;;;;2.43;1.50;;;;;;;27.39;59.23;100925.00;5049241;28;20233;-76
2022/06/11 09:06:17;;;;;;;4.07;1.80;;;;;;;27.24;59.46;100923.41;5043342;28;20217;-76
2022/06/11 09:08:48;;;;;;;3.50;1.87;;;;;;;27.14;59.61;100925.84;5043016;28;20201;-76
2022/06/11 09:11:24;;;;;;;3.67;1.53;;;;;;;27.04;59.61;100919.47;5040387;28;20309;-74
2022/06/11 09:13:58;;;;;;;1.80;1.37;;;;;;;27.00;59.58;100916.16;5041344;28;21944;-76
2022/06/11 09:16:32;;;;;;;2.50;1.60;;;;;;;27.04;59.82;100911.50;5042355;28;20285;-77
2022/06/11 09:19:35;;;;;;;2.70;1.60;;;;;;;27.17;60.25;100909.69;5039758;28;21393;-76
2022/06/11 09:22:19;;;;;;;2.37;1.47;;;;;;;27.30;60.66;100909.66;5041267;28;20213;-76
2022/06/11 09:24:50;;;;;;;2.00;1.50;;;;;;;27.33;60.80;100906.81;5047271;28;20193;-77
2022/06/11 09:27:47;;;;;;;3.40;1.40;;;;;;;27.33;60.92;100901.50;5040854;28;20193;-76
2022/06/11 09:30:18;;;;;;;2.60;1.70;;;;;;;27.21;60.97;100900.56;5047049;28;20191;-76
2022/06/11 09:32:56;;;;;;;12.10;3.00;;;;;;;27.13;60.84;100910.84;5041379;28;20214;-76
2022/06/11 09:35:35;;;;;;;3.23;1.80;;;;;;;27.14;61.11;100903.75;5039977;28;20213;-77
2022/06/11 09:38:15;;;;;;;2.37;1.90;;;;;;;27.09;60.90;100909.34;5043729;28;20653;-75
2022/06/11 09:40:44;;;;;;;2.77;1.77;;;;;;;26.97;60.73;100903.09;5040758;28;20214;-75
2022/06/11 09:43:18;;;;;;;3.53;1.70;;;;;;;26.83;60.52;100906.69;5040726;28;20713;-75
2022/06/11 09:45:56;;;;;;;2.63;1.30;;;;;;;26.88;60.56;100899.28;5043419;28;20293;-76
2022/06/11 09:48:28;;;;;;;3.37;1.50;;;;;;;26.96;61.11;100908.50;5042060;28;21182;-76
2022/06/11 09:51:20;;;;;;;2.40;1.50;;;;;;;27.07;61.25;100893.53;5043264;28;20217;-76
2022/06/11 09:54:30;;;;;;;3.43;1.60;;;;;;;27.12;61.14;100898.53;5041762;28;20200;-76
2022/06/11 09:56:55;;;;;;;3.93;2.00;;;;;;;26.99;60.49;100898.53;5027860;28;20242;-76
2022/06/11 09:59:37;;;;;;;2.13;1.60;;;;;;;27.05;61.37;100898.09;5045341;28;20218;-76
2022/06/11 10:02:20;;;;;;;2.77;1.50;;;;;;;27.11;61.09;100901.31;5045198;28;20200;-76
2022/06/11 10:04:48;;;;;;;2.90;1.43;;;;;;;27.05;60.77;100900.75;5050415;28;20242;-77
2022/06/11 10:07:19;;;;;;;2.00;1.50;;;;;;;27.12;60.94;100895.03;5059698;28;20214;-78
2022/06/11 10:10:01;;;;;;;2.77;1.70;;;;;;;27.20;60.46;100898.84;5043381;28;20192;-76
2022/06/11 10:12:36;;;;;;;2.87;1.30;;;;;;;27.20;60.68;100898.00;5044415;28;20301;-76
2022/06/11 10:15:05;;;;;;;3.40;1.80;;;;;;;27.08;60.15;100900.56;5047558;28;20194;-76
2022/06/11 10:17:49;;;;;;;6.47;1.90;;;;;;;26.93;60.40;100898.94;5049326;28;20195;-78
2022/06/11 10:20:24;;;;;;;3.37;1.37;;;;;;;26.96;60.26;100903.19;5050189;28;20285;-76
2022/06/11 10:22:53;;;;;;;2.33;1.80;;;;;;;27.02;60.65;100900.97;5049153;28;20197;-77
2022/06/11 10:25:30;;;;;;;2.97;1.70;;;;;;;27.12;60.91;100905.66;5049604;28;20212;-76
2022/06/11 10:28:18;;;;;;;2.73;1.60;;;;;;;27.21;61.08;100899.69;5051121;28;20337;-76
2022/06/11 10:30:54;;;;;;;2.23;1.40;;;;;;;27.29;60.94;100896.50;5047298;28;20437;-77
2022/06/11 10:34:01;;;;;;;2.63;1.30;;;;;;;27.23;60.64;100884.50;5048481;28;20190;-77
2022/06/11 10:36:34;;;;;;;1.33;1.10;;;;;;;27.32;60.85;100883.84;5051311;28;20206;-76
2022/06/11 10:39:18;;;;;;;2.13;1.30;;;;;;;27.43;61.45;100885.75;5048410;28;20230;-77
2022/06/11 10:41:54;;;;;;;1.83;1.30;;;;;;;27.53;61.39;100885.97;5051863;28;20214;-77
2022/06/11 10:44:30;;;;;;;2.17;1.40;;;;;;;27.58;61.40;100882.97;5046015;28;20182;-78
2022/06/11 10:46:56;;;;;;;1.90;1.20;;;;;;;27.62;61.10;100887.13;5049262;28;20188;-76
2022/06/11 10:49:22;;;;;;;1.80;1.43;;;;;;;27.74;62.14;100883.59;5051601;28;20220;-77
2022/06/11 10:52:06;;;;;;;2.10;1.33;;;;;;;27.82;62.09;100885.69;5053279;28;20218;-76
2022/06/11 10:54:31;;;;;;;1.87;1.23;;;;;;;27.83;61.19;100882.06;5052077;28;20190;-76
2022/06/11 10:57:29;;;;;;;1.40;1.10;;;;;;;27.84;61.23;100881.09;5047822;28;20191;-75
2022/06/11 11:00:27;;;;;;;3.23;1.53;;;;;;;27.85;59.80;100872.16;5042122;28;20210;-75
2022/06/11 11:02:58;;;;;;;3.40;1.63;;;;;;;27.87;60.69;100870.25;5045926;28;20201;-76
2022/06/11 11:05:42;;;;;;;1.70;1.30;;;;;;;27.95;60.80;100865.22;5044057;28;20195;-76
2022/06/11 11:08:12;;;;;;;2.20;1.37;;;;;;;28.07;61.22;100866.13;5044471;28;20243;-76
2022/06/11 11:10:43;;;;;;;2.50;1.50;;;;;;;28.13;60.87;100867.50;5046377;28;20191;-77
2022/06/11 11:13:34;;;;;;;3.37;1.50;;;;;;;28.14;60.87;100863.88;5051611;28;20225;-77
2022/06/11 11:16:09;;;;;;;1.30;1.20;;;;;;;28.18;60.91;100854.72;5048970;28;20187;-76
2022/06/11 11:18:52;;;;;;;2.40;1.30;;;;;;;28.28;61.13;100861.03;5050877;28;20200;-77
2022/06/11 11:21:29;;;;;;;1.77;1.50;;;;;;;28.34;60.85;100853.56;5049304;28;20209;-76
2022/06/11 11:24:00;;;;;;;1.87;1.40;;;;;;;28.35;61.01;100856.09;5046987;28;20280;-77
2022/06/11 11:26:40;;;;;;;1.43;1.33;;;;;;;28.38;61.09;100847.91;5044511;28;21000;-77
2022/06/11 11:29:17;;;;;;;1.50;1.20;;;;;;;28.42;60.99;100851.16;5049878;28;20577;-78
2022/06/11 11:31:50;;;;;;;3.03;1.40;;;;;;;28.47;61.51;100850.81;5050995;28;20206;-75
2022/06/11 11:34:23;;;;;;;1.77;1.47;;;;;;;28.51;61.79;100854.94;5044124;28;20183;-75
2022/06/11 11:36:48;;;;;;;3.77;1.50;;;;;;;28.43;60.71;100847.53;5046108;28;20673;-76
2022/06/11 11:39:17;;;;;;;2.33;1.70;;;;;;;28.43;60.92;100851.06;5047558;28;20191;-76
2022/06/11 11:42:10;;;;;;;4.47;1.97;;;;;;;28.40;60.05;100845.09;5057630;28;20212;-76